PLUPIERCE COUNTY - THUN FLD
METARs for airports near PLU, sorted by distance:
N 0 nm 537' KPLU 172235Z 00000KT 10SM CLR 28/15 A3000
W 7 nm 322' KTCM 172155Z 33004KT 10SM CLR 27/15 A2999
W 12 nm 301' KGRF 172205Z 26009KT 10SM SCT150 28/15 A2996
NW 15 nm 294' KTIW 172253Z 30006KT 10SM CLR 27/16 A2999
N 20 nm 432' KSEA 172253Z 22008KT 10SM FEW050 SCT150 BKN200 26/14 A3000
N 23 nm 32' KRNT 172253Z 20007KT 10SM CLR 28/16 A2997
N 25 nm 21' KBFI 172253Z 18008KT 10SM CLR 28/16 A2997
W 26 nm 207' KOLM 172154Z 17006KT 10SM CLR 28/16 A3000
NW 30 nm 444' KPWT 172156Z
W 35 nm 272' KSHN 172253Z 25012KT 10SM CLR 25/15 A2998
SW 38 nm 177' KCLS 172255Z VRB04KT 10SM CLR 28/16 A3000
N 48 nm 606' KPAE 172253Z 25008KT 10SM CLR 29/14 A2999
N 63 nm 141' KAWO 172156Z 30007KT 10SM CLR 27/15 A2996
SW 64 nm 20' KKLS 172156Z VRB06KT 10SM CLR 26/16 A3002
W 67 nm 17' KHQM 172253Z 26011KT 10SM OVC015 17/14 A3007
E 72 nm 1763' KELN 172253Z 24015G23KT 10SM CLR 34/06 A2998
N 76 nm 47' KNUW 172153Z 23009KT 10SM SCT110 BKN170 BKN250 17/13 A2998
NW 77 nm 13' KNOW 172235Z 29018KT 10SM CLR 18/14 A2998
NW 78 nm 291' KCLM 172253Z 29009KT 10SM CLR 24/15 A2999
SE 78 nm 1098' KYKM 172253Z 29019G27KT 10SM CLR 32/11 A2994
N 82 nm 145' KBVS 172235Z 00000KT 8SM CLR 26/17 A2995
S 83 nm 58' KSPB 172253Z 08006KT 10SM CLR A2998
E 86 nm 1248' KEAT 172155Z 09006KT 9SM FEW046 SCT095 SCT120 33/09 A2992
SW 86 nm 14' KAST 172155Z 23014G22KT 10SM CLR 18/11 A3008
N 90 nm 112' KFHR 172253Z 23006KT 10SM CLR 24/13 A2996
S 90 nm 28' KVUO 172253Z 00000KT 10SM CLR 29/13 A3000
S 91 nm 30' KPDX 172253Z 03004KT 10SM FEW150 BKN250 29/13 A2999
S 93 nm 38' KTTD 172253Z 04005KT 10SM CLR 29/14 A2998
S 97 nm 207' KHIO 172253Z VRB05KT 10SM CLR 29/14 A2998
N 99 nm 34' KORS 172235Z 17005G10KT 8SM CLR 24/15 A2993
TAFs for airports near PLU, sorted by distance:
W 7 nm 322' KTCM TAF TAF KTCM 172100Z 1721/1903 25012KT 9999 FEW150 SCT210 QNH2999INS
  BECMG 1806/1807 22006KT 9999 SCT020 BKN040 QNH3006INS
  BECMG 1809/1810 25005KT 9999 SCT015 BKN025 QNH3007INS
  BECMG 1816/1817 24009KT 9999 SKC QNH3005INS TX29/1723Z TN13/1813Z
W 12 nm 301' KGRF TAF KGRF 172100Z 1721/1903 24009KT 9999 SCT160 SCT220 QNH2997INS
  BECMG 1804/1805 24008KT 9999 FEW021 QNH3004INS
  BECMG 1808/1809 24005KT 9999 SKC QNH3005INS
  BECMG 1820/1821 24010KT 9999 SKC QNH3003INS TX28/1800Z TN13/1813Z
N 20 nm 432' KSEA KSEA 171740Z 1718/1824 21006KT P6SM BKN150
  FM172000 25006KT P6SM FEW050 SCT150
  FM180300 21006KT P6SM SKC
  FM180900 21006KT P6SM OVC008
  FM181700 21006KT P6SM OVC012
  FM181900 24006KT P6SM FEW250
N 25 nm 21' KBFI KBFI 171740Z 1718/1818 25005KT P6SM BKN150
  FM180300 20006KT P6SM SKC
  FM180900 28006KT P6SM OVC012
  FM181700 20005KT P6SM SCT015
W 26 nm 207' KOLM KOLM 171740Z 1718/1818 24006KT P6SM SCT150
  FM172000 27008KT P6SM SCT150
  FM180900 21006KT P6SM OVC012
  FM181700 22005KT P6SM SCT015
NW 30 nm 444' KPWT TAF KPWT 171740Z 1718/1818 19006KT P6SM BKN150
  FM180300 19006KT P6SM SKC
  FM180800 19006KT P6SM OVC006
  FM181200 21009KT P6SM OVC003
  AMD NOT SKED
N 48 nm 606' KPAE KPAE 171740Z 1718/1818 19006KT P6SM BKN150
  FM172000 31006KT P6SM FEW050 SCT150
  FM180600 19006KT P6SM SKC
  FM181000 19006KT P6SM OVC006
  FM181700 21006KT P6SM SCT010
W 67 nm 17' KHQM TAF KHQM 171740Z 1718/1818 21008KT P6SM OVC006
  FM171900 24012KT P6SM OVC012
  FM180200 24008KT P6SM OVC008
  FM180900 21006KT P6SM OVC004
N 76 nm 47' KNUW TAF KNUW 1723/1823 24009KT 9999 VCSH FEW040 SCT110 BKN160 BKN250 QNH2994INS
  FM180900 22007KT 6000 BR VCFG SCT004 BKN008 OVC015 QNH2999INS
  TEMPO 1810/1816 VRB04KT 0800 FG VV003
  FM181600 VRB06KT 9999 FEW005 BKN015 BKN250 QNH3008INS
  FM181900 26008KT 9999 FEW015 SCT250 QNH3006INS TX18/1723Z TN12/1813Z FS30046
NW 78 nm 291' KCLM KCLM 171740Z 1718/1818 30006KT P6SM BKN150
  FM180200 29012KT P6SM SCT150
  FM181000 29008KT P6SM OVC008
  FM181600 32005KT P6SM BKN015
SE 78 nm 1098' KYKM KYKM 171720Z 1718/1818 VRB05KT P6SM VCSH BKN150 OVC250
  FM172000 VRB05KT P6SM VCTS FEW100CB SCT150
  TEMPO 1722/1801 VRB10G20KT -TSRA FEW050CB
  FM180200 31008KT P6SM FEW250
E 86 nm 1248' KEAT KEAT 171739Z 1718/1818 VRB04KT P6SM SKC
  FM172000 12006KT P6SM SCT120 BKN200
  FM180300 29010KT P6SM SCT120 BKN200
  FM181200 30008KT P6SM BKN250
SW 86 nm 14' KAST KAST 171733Z 1718/1818 22009G17KT P6SM SCT025
  FM172100 24010G18KT P6SM SCT025
  FM180300 23007KT P6SM SCT015
  FM180800 20005KT P6SM OVC015
S 91 nm 30' KPDX TAF
  AMD KPDX 172114Z 1721/1818 08008KT P6SM SCT150
  FM172200 25007KT P6SM SCT150
  FM180200 32006KT P6SM SKC
  FM181000 VRB04KT P6SM SCT020
S 93 nm 38' KTTD KTTD 171733Z 1718/1818 25006KT P6SM SCT150
  FM181100 VRB03KT P6SM SCT020
S 97 nm 207' KHIO KHIO 171733Z 1718/1818 19005KT P6SM FEW150
  FM180300 VRB03KT P6SM SKC
  FM181200 VRB03KT P6SM SCT020

Shortcut to this page: http://wxbay.com.

Data may contain errors.